Time;durP1;ratioP1;P1;durP2;ratioP2;P2;SDS_P1;SDS_P2;PMS_P1;PMS_P2;Temp;Humidity;BMP_temperature;BMP_pressure;BME280_temperature;BME280_humidity;BME280_pressure;Samples;Min_cycle;Max_cycle;Signal;HPM_P1;HPM_P2
2021/11/13 00:02:23;;;;;;;95.17;40.10;;;;;;;5.37;89.69;101329.88;5010960;28;20218;-77
2021/11/13 00:04:48;;;;;;;100.40;41.70;;;;;;;5.33;89.95;101323.78;5011155;28;20191;-78
2021/11/13 00:07:14;;;;;;;94.30;40.40;;;;;;;5.31;89.86;101320.31;5010086;28;20249;-78
2021/11/13 00:09:39;;;;;;;103.20;40.67;;;;;;;5.27;89.87;101328.59;4993767;28;20218;-77
2021/11/13 00:12:05;;;;;;;99.60;41.07;;;;;;;5.30;89.67;101323.63;5011048;28;20668;-77
2021/11/13 00:14:32;;;;;;;98.80;43.07;;;;;;;5.27;89.54;101318.44;4993023;28;20191;-78
2021/11/13 00:16:58;;;;;;;105.73;42.30;;;;;;;5.26;90.24;101308.19;5010606;28;20325;-77
2021/11/13 00:19:23;;;;;;;105.20;41.17;;;;;;;5.23;90.08;101318.19;4993378;28;20298;-77
2021/11/13 00:21:49;;;;;;;99.17;41.10;;;;;;;5.25;89.34;101322.53;5010893;28;20183;-76
2021/11/13 00:24:15;;;;;;;96.63;39.87;;;;;;;5.25;89.52;101324.22;5011138;28;20210;-78
2021/11/13 00:26:41;;;;;;;92.50;40.10;;;;;;;5.23;89.78;101330.88;5010526;28;20664;-77
2021/11/13 00:29:06;;;;;;;97.20;40.10;;;;;;;5.21;89.74;101329.97;4992905;28;20249;-77
2021/11/13 00:31:32;;;;;;;87.77;40.43;;;;;;;5.26;89.88;101323.44;5010656;28;20215;-75
2021/11/13 00:33:57;;;;;;;87.97;39.97;;;;;;;5.24;89.65;101313.19;4992853;28;20191;-77
2021/11/13 00:36:23;;;;;;;95.50;39.00;;;;;;;5.28;89.63;101310.00;4992626;28;20804;-78
2021/11/13 00:38:48;;;;;;;89.30;38.73;;;;;;;5.24;89.67;101313.19;5011058;28;20179;-77
2021/11/13 00:41:15;;;;;;;94.60;40.40;;;;;;;5.25;89.99;101306.47;5010496;28;20494;-77
2021/11/13 00:43:41;;;;;;;83.37;38.57;;;;;;;5.23;90.01;101313.13;5009814;28;20211;-78
2021/11/13 00:46:06;;;;;;;92.47;40.00;;;;;;;5.20;89.92;101308.78;4992639;28;20608;-76
2021/11/13 00:48:32;;;;;;;98.40;40.33;;;;;;;5.19;90.14;101312.09;4992902;28;20222;-77
2021/11/13 00:50:57;;;;;;;96.57;40.20;;;;;;;5.17;89.97;101323.88;4992386;28;20207;-78
2021/11/13 00:53:23;;;;;;;102.33;41.70;;;;;;;5.18;90.22;101318.00;5010644;28;20557;-78
2021/11/13 00:55:48;;;;;;;97.40;40.83;;;;;;;5.13;89.79;101319.44;4992582;28;20222;-77
2021/11/13 00:58:14;;;;;;;95.97;41.33;;;;;;;5.11;90.35;101318.47;5009118;28;20185;-77
2021/11/13 01:00:39;;;;;;;99.43;42.20;;;;;;;5.13;90.15;101316.91;4992177;28;20222;-78
2021/11/13 01:03:04;;;;;;;96.63;40.87;;;;;;;5.14;89.89;101320.28;5008802;28;20215;-75
2021/11/13 01:05:31;;;;;;;96.33;41.63;;;;;;;5.10;90.01;101314.19;5009930;28;20187;-76
2021/11/13 01:07:57;;;;;;;103.03;41.40;;;;;;;5.08;90.72;101313.28;4992740;28;20250;-77
2021/11/13 01:10:22;;;;;;;101.97;44.13;;;;;;;5.07;89.80;101318.28;5025249;28;20207;-78
2021/11/13 01:12:49;;;;;;;101.60;43.80;;;;;;;5.07;90.26;101315.72;5010285;28;20556;-78
2021/11/13 01:15:16;;;;;;;100.23;41.47;;;;;;;5.09;90.21;101311.59;4992414;28;20346;-78
2021/11/13 01:17:41;;;;;;;97.93;42.47;;;;;;;5.11;90.05;101310.84;4992505;28;20187;-78
2021/11/13 01:20:12;;;;;;;96.93;41.30;;;;;;;5.10;90.56;101304.06;5009021;28;20257;-77
2021/11/13 01:22:39;;;;;;;95.87;42.17;;;;;;;5.10;90.29;101308.25;5008963;28;20176;-78
2021/11/13 01:25:06;;;;;;;101.57;42.47;;;;;;;5.09;90.07;101299.78;4992670;28;20552;-77
2021/11/13 01:27:32;;;;;;;96.87;40.80;;;;;;;5.12;90.14;101296.53;4992007;28;20229;-77
2021/11/13 01:29:57;;;;;;;94.67;41.93;;;;;;;5.12;89.89;101291.44;4992104;28;20215;-77
2021/11/13 01:32:25;;;;;;;97.43;40.97;;;;;;;5.10;89.86;101288.81;5010111;28;20239;-78
2021/11/13 01:34:51;;;;;;;98.60;41.97;;;;;;;5.11;90.09;101287.16;4991811;28;20287;-77
2021/11/13 01:37:16;;;;;;;101.37;42.87;;;;;;;5.10;90.04;101281.22;5008673;28;20278;-76
2021/11/13 01:39:42;;;;;;;96.13;42.33;;;;;;;5.07;90.24;101283.59;4992254;28;20199;-77
2021/11/13 01:42:07;;;;;;;90.53;42.90;;;;;;;5.14;90.05;101283.09;4992250;28;20688;-80
2021/11/13 01:44:34;;;;;;;97.80;42.57;;;;;;;5.10;90.36;101275.25;5008335;28;20768;-78
2021/11/13 01:46:59;;;;;;;93.47;40.60;;;;;;;5.10;90.67;101275.25;5008202;28;20187;-77
2021/11/13 01:49:25;;;;;;;95.20;42.63;;;;;;;5.12;90.25;101286.38;4991994;28;20241;-77
2021/11/13 01:51:50;;;;;;;92.10;40.37;;;;;;;5.15;90.21;101291.59;5009781;28;20274;-78
2021/11/13 01:54:18;;;;;;;88.97;40.73;;;;;;;5.15;89.87;101297.53;5010771;28;20206;-78
2021/11/13 01:56:44;;;;;;;93.73;41.27;;;;;;;5.15;89.45;101289.91;5013359;28;20209;-77
2021/11/13 01:59:10;;;;;;;92.40;41.77;;;;;;;5.16;89.56;101294.19;5013253;28;20270;-76
2021/11/13 02:01:37;;;;;;;88.73;40.07;;;;;;;5.15;89.85;101287.38;4995843;28;20199;-78
2021/11/13 02:04:04;;;;;;;85.33;41.53;;;;;;;5.16;89.19;101286.56;5028408;28;20213;-76
2021/11/13 02:06:31;;;;;;;89.07;40.10;;;;;;;5.14;89.60;101294.91;4996153;28;20179;-77
2021/11/13 02:08:57;;;;;;;91.03;42.57;;;;;;;5.18;89.85;101287.53;5013445;28;20207;-78
2021/11/13 02:11:25;;;;;;;90.73;42.40;;;;;;;5.17;89.79;101285.81;5012996;28;20222;-79
2021/11/13 02:13:59;;;;;;;90.17;41.50;;;;;;;5.20;89.62;101285.06;4996853;28;20179;-78
2021/11/13 02:16:25;;;;;;;87.37;39.17;;;;;;;5.19;89.82;101283.31;5028132;28;20759;-76
2021/11/13 02:21:19;;;;;;;87.17;38.90;;;;;;;5.22;89.69;101281.81;4968600;28;20291;-74
2021/11/13 02:23:48;;;;;;;91.53;40.97;;;;;;;5.26;89.32;101273.53;4922431;29;20560;-74
2021/11/13 02:26:14;;;;;;;75.97;38.17;;;;;;;5.28;89.48;101291.34;4945776;28;20664;-74
2021/11/13 02:28:40;;;;;;;82.47;40.03;;;;;;;5.26;88.87;101283.69;4973532;28;20217;-73
2021/11/13 02:31:08;;;;;;;80.20;38.57;;;;;;;5.25;88.96;101284.47;4957193;28;20688;-73
2021/11/13 02:33:33;;;;;;;83.23;40.23;;;;;;;5.29;88.73;101282.97;4955277;28;20203;-71
2021/11/13 02:35:59;;;;;;;84.40;39.43;;;;;;;5.24;88.86;101276.78;4937267;29;20272;-73
2021/11/13 02:38:35;;;;;;;81.47;39.23;;;;;;;5.28;88.72;101278.66;4937412;29;20231;-72
2021/11/13 02:41:06;;;;;;;75.13;37.70;;;;;;;5.24;88.60;101280.19;4967447;28;20251;-72
2021/11/13 02:43:33;;;;;;;77.77;40.23;;;;;;;5.28;88.79;101269.41;4937185;29;20235;-74
2021/11/13 02:46:02;;;;;;;79.30;39.33;;;;;;;5.29;88.85;101280.44;4936887;29;20288;-72
2021/11/13 02:48:32;;;;;;;76.77;37.43;;;;;;;5.30;88.90;101277.94;4954283;28;20227;-73
2021/11/13 02:50:57;;;;;;;81.63;39.47;;;;;;;5.33;89.29;101282.28;4953990;28;20264;-74
2021/11/13 02:53:28;;;;;;;78.80;38.40;;;;;;;5.36;88.68;101278.25;4953881;28;20569;-72
2021/11/13 02:55:55;;;;;;;84.60;39.83;;;;;;;5.36;88.68;101280.78;4954824;28;20197;-74
2021/11/13 02:58:22;;;;;;;80.37;38.90;;;;;;;5.36;88.82;101284.97;4937088;29;20197;-73
2021/11/13 03:00:55;;;;;;;81.37;39.53;;;;;;;5.36;88.65;101277.38;4953912;28;20849;-73
2021/11/13 03:03:21;;;;;;;76.23;38.10;;;;;;;5.36;89.08;101273.16;4937007;29;20265;-74
2021/11/13 03:05:50;;;;;;;75.37;36.63;;;;;;;5.36;88.33;101270.63;4936187;29;20241;-73
2021/11/13 03:08:22;;;;;;;75.43;37.77;;;;;;;5.34;88.83;101278.97;4940836;28;20716;-74
2021/11/13 03:10:48;;;;;;;81.00;39.17;;;;;;;5.36;88.88;101268.09;4955563;28;20223;-74
2021/11/13 03:13:13;;;;;;;74.37;37.07;;;;;;;5.39;89.57;101278.38;4972231;28;20188;-72
2021/11/13 03:15:38;;;;;;;78.23;37.37;;;;;;;5.38;88.94;101271.56;4971775;28;20199;-74
2021/11/13 03:18:04;;;;;;;78.60;38.57;;;;;;;5.39;88.55;101272.44;4973145;28;20177;-73
2021/11/13 03:20:30;;;;;;;78.93;38.70;;;;;;;5.41;88.59;101276.78;4955705;28;20216;-73
2021/11/13 03:22:58;;;;;;;75.90;38.10;;;;;;;5.42;88.87;101275.09;4949233;28;20205;-73
2021/11/13 03:25:26;;;;;;;72.80;38.63;;;;;;;5.43;88.68;101272.63;4955811;28;20185;-74
2021/11/13 03:27:54;;;;;;;70.37;36.57;;;;;;;5.45;88.33;101272.72;4954688;28;20627;-74
2021/11/13 03:30:21;;;;;;;70.57;36.53;;;;;;;5.45;88.26;101270.19;4937176;28;20303;-73
2021/11/13 03:32:48;;;;;;;77.40;37.43;;;;;;;5.41;89.08;101261.56;4953603;28;20181;-73
2021/11/13 03:35:16;;;;;;;71.80;36.37;;;;;;;5.40;89.05;101277.59;4936433;29;20220;-72
2021/11/13 03:37:42;;;;;;;74.07;37.30;;;;;;;5.39;88.93;101277.53;4964758;28;20200;-73
2021/11/13 03:40:10;;;;;;;78.17;39.93;;;;;;;5.34;88.77;101267.13;4972849;28;20216;-72
2021/11/13 03:42:36;;;;;;;75.10;39.20;;;;;;;5.36;89.19;101277.38;4962049;28;20247;-73
2021/11/13 03:45:03;;;;;;;77.07;38.23;;;;;;;5.36;88.88;101268.09;4936318;29;20192;-73
2021/11/13 03:47:28;;;;;;;76.60;37.20;;;;;;;5.37;88.83;101264.75;4920195;29;20196;-74
2021/11/13 03:49:57;;;;;;;76.07;37.33;;;;;;;5.39;89.07;101270.75;4936001;29;20221;-74
2021/11/13 03:52:22;;;;;;;71.67;36.20;;;;;;;5.43;88.98;101264.19;4961803;28;20197;-74
2021/11/13 03:54:47;;;;;;;71.80;36.67;;;;;;;5.46;88.79;101267.72;4962832;28;20534;-73
2021/11/13 03:57:13;;;;;;;69.20;35.77;;;;;;;5.47;88.48;101260.94;4970823;28;20814;-73
2021/11/13 03:59:38;;;;;;;70.00;36.23;;;;;;;5.47;88.27;101266.91;4954853;28;20209;-73
2021/11/13 04:02:03;;;;;;;71.57;36.17;;;;;;;5.47;89.13;101266.03;4937442;28;20548;-72
2021/11/13 04:04:29;;;;;;;66.23;35.50;;;;;;;5.46;88.75;101262.63;4952968;28;20343;-73
2021/11/13 04:06:54;;;;;;;71.50;36.70;;;;;;;5.48;88.77;101267.78;4940360;28;20193;-73
2021/11/13 04:09:20;;;;;;;69.80;36.37;;;;;;;5.48;88.50;101262.72;4953539;28;20225;-74
2021/11/13 04:11:45;;;;;;;66.20;33.33;;;;;;;5.45;88.56;101258.38;4952795;28;20189;-72
2021/11/13 04:14:11;;;;;;;68.87;34.90;;;;;;;5.49;88.95;101254.28;4935476;29;20189;-74
2021/11/13 04:16:36;;;;;;;71.80;36.97;;;;;;;5.48;88.66;101261.03;4951852;28;20217;-71
2021/11/13 04:19:02;;;;;;;75.27;36.43;;;;;;;5.47;88.39;101268.56;4935201;29;20199;-73
2021/11/13 04:21:28;;;;;;;64.43;35.03;;;;;;;5.45;88.41;101270.19;4953797;28;20207;-73
2021/11/13 04:23:53;;;;;;;64.57;34.73;;;;;;;5.45;88.45;101270.19;4934831;28;20674;-73
2021/11/13 04:26:18;;;;;;;67.97;35.13;;;;;;;5.50;88.60;101266.19;4951005;28;20284;-73
2021/11/13 04:28:46;;;;;;;67.10;34.13;;;;;;;5.52;88.60;101268.00;4952512;29;20228;-73
2021/11/13 04:31:12;;;;;;;65.23;36.20;;;;;;;5.49;88.63;101269.53;4952436;29;20236;-73
2021/11/13 04:33:39;;;;;;;63.93;34.93;;;;;;;5.52;88.54;101272.22;4964102;28;20663;-73
2021/11/13 04:36:09;;;;;;;64.70;35.00;;;;;;;5.49;88.69;101267.88;4958194;28;20199;-73
2021/11/13 04:38:36;;;;;;;67.97;35.20;;;;;;;5.52;88.81;101265.44;4971936;28;20197;-74
2021/11/13 04:41:04;;;;;;;65.87;35.30;;;;;;;5.55;89.00;101268.13;4971496;28;20208;-73
2021/11/13 04:43:29;;;;;;;68.40;35.67;;;;;;;5.55;88.72;101264.72;4971282;28;20195;-72
2021/11/13 04:45:55;;;;;;;64.77;35.60;;;;;;;5.55;89.05;101270.69;4971424;28;20560;-73
2021/11/13 04:48:21;;;;;;;65.70;35.63;;;;;;;5.56;88.66;101272.41;4971252;28;20235;-73
2021/11/13 04:50:47;;;;;;;63.93;35.20;;;;;;;5.52;88.73;101274.75;4962701;28;20280;-73
2021/11/13 04:53:12;;;;;;;64.20;36.23;;;;;;;5.53;88.58;101274.78;4955725;28;20185;-73
2021/11/13 04:55:38;;;;;;;64.57;35.47;;;;;;;5.55;89.17;101268.13;4971150;28;20177;-74
2021/11/13 04:58:04;;;;;;;68.40;35.30;;;;;;;5.55;89.05;101267.25;4953849;28;20324;-73
2021/11/13 05:00:31;;;;;;;65.73;34.53;;;;;;;5.53;89.30;101272.25;4953822;28;20239;-72
2021/11/13 05:02:57;;;;;;;68.13;35.97;;;;;;;5.56;89.13;101277.50;4962568;28;20670;-73
2021/11/13 05:05:24;;;;;;;62.60;35.37;;;;;;;5.59;88.88;101271.69;4946109;28;20212;-73
2021/11/13 05:07:49;;;;;;;65.53;34.87;;;;;;;5.59;88.92;101271.69;4971004;28;20181;-74
2021/11/13 05:10:16;;;;;;;64.97;34.93;;;;;;;5.58;88.65;101273.34;4952224;28;20657;-74
2021/11/13 05:12:42;;;;;;;67.67;36.87;;;;;;;5.58;88.69;101275.03;4954026;28;20228;-73
2021/11/13 05:15:08;;;;;;;62.30;35.07;;;;;;;5.59;88.55;101275.09;4964519;28;20185;-73
2021/11/13 05:17:34;;;;;;;59.50;33.00;;;;;;;5.61;88.97;101278.56;4934367;29;20250;-73
2021/11/13 05:20:07;;;;;;;66.17;35.77;;;;;;;5.60;89.04;101275.94;4950133;28;20212;-74
2021/11/13 05:22:37;;;;;;;70.07;35.97;;;;;;;5.57;89.32;101280.91;4943259;29;20196;-74
2021/11/13 05:25:04;;;;;;;66.63;34.73;;;;;;;5.60;89.26;101274.28;4951837;29;20795;-74
2021/11/13 05:27:31;;;;;;;66.07;37.10;;;;;;;5.56;89.09;101272.41;4951477;28;20279;-73
2021/11/13 05:29:56;;;;;;;66.97;36.03;;;;;;;5.55;89.01;101273.22;4951427;29;20225;-74
2021/11/13 05:32:22;;;;;;;60.53;33.97;;;;;;;5.61;88.25;101282.81;4952537;28;20845;-74
2021/11/13 05:34:47;;;;;;;64.03;35.33;;;;;;;5.59;88.95;101276.75;4951677;28;20268;-73
2021/11/13 05:37:13;;;;;;;65.77;34.80;;;;;;;5.60;88.87;101273.41;4918359;29;20193;-74
2021/11/13 05:39:38;;;;;;;66.83;33.67;;;;;;;5.57;88.49;101270.75;4934250;29;20193;-74
2021/11/13 05:42:04;;;;;;;60.17;32.53;;;;;;;5.56;88.37;101276.59;4934377;29;20193;-73
2021/11/13 05:44:36;;;;;;;58.10;32.90;;;;;;;5.63;88.92;101287.16;4934189;28;20193;-74
2021/11/13 05:47:01;;;;;;;58.77;32.03;;;;;;;5.59;88.28;101282.72;4962292;28;20204;-73
2021/11/13 05:49:27;;;;;;;57.77;32.77;;;;;;;5.60;88.29;101281.03;4970593;28;20228;-73
2021/11/13 05:51:52;;;;;;;59.73;32.63;;;;;;;5.63;88.15;101292.22;4970665;28;20184;-73
2021/11/13 05:54:18;;;;;;;55.93;32.30;;;;;;;5.64;88.22;101288.00;4970556;28;20228;-71
2021/11/13 05:56:44;;;;;;;54.23;31.33;;;;;;;5.64;88.04;101286.34;4953109;28;20196;-72
2021/11/13 05:59:11;;;;;;;55.90;31.80;;;;;;;5.60;87.97;101289.53;4970930;28;20204;-73
2021/11/13 06:01:39;;;;;;;54.47;31.50;;;;;;;5.61;88.02;101290.41;4955747;28;20193;-73
2021/11/13 06:04:04;;;;;;;55.93;32.17;;;;;;;5.60;87.76;101286.13;4934106;29;20193;-72
2021/11/13 06:06:30;;;;;;;63.27;33.50;;;;;;;5.67;88.23;101285.59;4951339;28;20228;-74
2021/11/13 06:08:56;;;;;;;61.67;31.83;;;;;;;5.67;87.81;101290.69;4935027;29;20210;-74
2021/11/13 06:11:21;;;;;;;57.43;33.40;;;;;;;5.67;88.37;101283.91;4934179;29;20220;-73
2021/11/13 06:13:47;;;;;;;56.30;31.63;;;;;;;5.65;88.41;101285.53;4951225;29;21011;-73
2021/11/13 06:16:12;;;;;;;57.37;31.33;;;;;;;5.69;88.78;101289.06;4962810;28;20556;-74
2021/11/13 06:18:38;;;;;;;52.07;31.63;;;;;;;5.67;88.55;101285.59;4951295;28;20683;-74
2021/11/13 06:21:06;;;;;;;55.30;31.97;;;;;;;5.71;88.37;101288.34;4933922;29;20736;-74
2021/11/13 06:23:36;;;;;;;56.17;31.80;;;;;;;5.71;88.74;101280.72;4951192;28;20729;-73
2021/11/13 06:26:02;;;;;;;53.10;30.10;;;;;;;5.69;88.13;101291.63;4950949;29;20599;-74
2021/11/13 06:28:28;;;;;;;57.17;32.90;;;;;;;5.72;88.28;101296.84;4935173;28;20231;-72
2021/11/13 06:30:53;;;;;;;59.73;33.33;;;;;;;5.68;88.19;101297.50;4952751;28;20698;-73
2021/11/13 06:33:19;;;;;;;55.30;32.40;;;;;;;5.69;88.29;101306.84;4951123;28;20200;-73
2021/11/13 06:35:45;;;;;;;53.73;31.13;;;;;;;5.71;88.65;101307.81;4954965;28;20243;-73
2021/11/13 06:38:10;;;;;;;52.37;31.20;;;;;;;5.68;88.55;101306.00;4951161;29;20189;-71
2021/11/13 06:40:36;;;;;;;53.43;30.63;;;;;;;5.67;87.89;101311.00;4970525;28;20268;-73
2021/11/13 06:43:01;;;;;;;51.97;29.50;;;;;;;5.66;88.88;101312.66;4934941;29;20267;-74
2021/11/13 06:45:31;;;;;;;52.07;29.87;;;;;;;5.67;88.40;101316.94;4954272;29;20622;-72
2021/11/13 06:47:56;;;;;;;49.70;29.47;;;;;;;5.70;87.64;101314.56;4954389;28;20203;-72
2021/11/13 06:50:22;;;;;;;56.37;31.73;;;;;;;5.69;87.88;101327.19;4953737;29;20292;-71
2021/11/13 06:52:47;;;;;;;51.67;30.07;;;;;;;5.71;88.02;101334.06;4937008;29;20198;-73
2021/11/13 06:55:13;;;;;;;54.20;30.73;;;;;;;5.68;88.00;101333.94;4956354;28;20597;-73
2021/11/13 06:57:40;;;;;;;49.20;30.40;;;;;;;5.70;87.96;101328.91;4959038;28;20184;-73
2021/11/13 07:00:10;;;;;;;50.53;28.77;;;;;;;5.72;88.02;101334.94;4971884;28;20216;-73
2021/11/13 07:02:37;;;;;;;53.93;29.87;;;;;;;5.74;88.00;101334.22;4970255;28;20197;-73
2021/11/13 07:05:04;;;;;;;48.83;29.07;;;;;;;5.73;88.13;101337.56;4968357;28;20189;-74
2021/11/13 07:07:32;;;;;;;53.83;30.10;;;;;;;5.73;88.36;101336.69;4952777;28;20195;-73
2021/11/13 07:10:02;;;;;;;52.40;31.43;;;;;;;5.80;88.40;101339.59;4973163;28;20279;-73
2021/11/13 07:12:28;;;;;;;52.40;30.30;;;;;;;5.82;87.64;101334.59;4940362;28;20231;-72
2021/11/13 07:14:53;;;;;;;46.63;29.37;;;;;;;5.80;87.24;101333.63;4971598;28;20228;-72
2021/11/13 07:17:19;;;;;;;47.17;28.70;;;;;;;5.84;87.98;101336.41;4972731;28;20196;-72
2021/11/13 07:19:44;;;;;;;44.17;28.53;;;;;;;5.88;87.55;101335.75;4973003;28;20270;-74
2021/11/13 07:22:09;;;;;;;48.27;29.50;;;;;;;5.90;88.36;101331.59;4972813;28;20657;-73
2021/11/13 07:24:35;;;;;;;48.33;29.90;;;;;;;5.93;87.73;101339.38;4955363;28;20215;-74
2021/11/13 07:27:00;;;;;;;46.93;29.50;;;;;;;5.94;87.88;101346.19;4971346;28;20197;-72
2021/11/13 07:29:28;;;;;;;49.70;29.20;;;;;;;5.94;87.95;101345.34;4970942;28;20208;-73
2021/11/13 07:31:53;;;;;;;42.87;28.07;;;;;;;5.97;88.38;101350.53;4971420;28;20216;-73
2021/11/13 07:34:19;;;;;;;44.20;27.60;;;;;;;5.92;87.40;101350.34;4970698;28;20239;-73
2021/11/13 07:36:44;;;;;;;45.73;27.90;;;;;;;5.94;87.83;101348.72;4935932;29;20653;-72
2021/11/13 07:39:10;;;;;;;47.10;28.07;;;;;;;5.95;87.92;101355.53;4936265;29;20206;-73
2021/11/13 07:41:35;;;;;;;43.50;28.00;;;;;;;5.99;88.10;101357.44;4956301;28;20188;-73
2021/11/13 07:44:00;;;;;;;45.67;28.50;;;;;;;6.02;87.79;101359.25;4971130;28;20666;-73
2021/11/13 07:46:26;;;;;;;43.40;28.73;;;;;;;6.02;87.53;101365.22;4971840;28;20190;-72
2021/11/13 07:48:52;;;;;;;43.20;27.97;;;;;;;6.00;87.80;101366.81;4955048;28;20260;-72
2021/11/13 07:51:18;;;;;;;45.53;28.63;;;;;;;6.02;87.23;101370.28;4971670;28;20200;-73
2021/11/13 07:53:44;;;;;;;41.50;26.77;;;;;;;6.04;87.70;101378.00;4972109;28;20684;-74
2021/11/13 07:56:10;;;;;;;43.93;27.90;;;;;;;6.07;86.55;101378.09;4954961;28;20189;-71
2021/11/13 07:58:35;;;;;;;38.77;25.93;;;;;;;6.10;86.86;101378.25;4966177;28;20272;-73
2021/11/13 08:01:00;;;;;;;45.40;27.87;;;;;;;6.06;86.93;101379.81;4971550;28;20212;-72
2021/11/13 08:03:27;;;;;;;44.70;27.90;;;;;;;6.07;87.31;101385.72;4970879;28;20200;-73
2021/11/13 08:05:52;;;;;;;38.57;26.70;;;;;;;6.05;87.74;101387.34;4971592;28;20193;-72
2021/11/13 08:08:18;;;;;;;45.07;27.80;;;;;;;6.09;87.33;101390.13;4972155;28;20581;-73
2021/11/13 08:10:45;;;;;;;39.10;26.90;;;;;;;6.06;86.56;101394.16;4954997;28;20631;-73
2021/11/13 08:13:13;;;;;;;40.23;26.53;;;;;;;6.07;87.28;101394.25;4956568;28;20189;-73
2021/11/13 08:15:39;;;;;;;38.90;26.13;;;;;;;6.11;86.76;101401.22;4955013;28;20201;-73
2021/11/13 08:18:06;;;;;;;40.63;26.70;;;;;;;6.12;87.76;101395.31;4954526;28;20199;-73
2021/11/13 08:20:32;;;;;;;39.70;26.57;;;;;;;6.11;87.69;101396.13;4972080;28;20216;-72
2021/11/13 08:22:57;;;;;;;40.27;26.80;;;;;;;6.14;87.49;101397.94;4971896;28;20188;-72
2021/11/13 08:25:23;;;;;;;39.07;26.30;;;;;;;6.13;87.01;101401.28;4972059;28;20188;-71
2021/11/13 08:27:49;;;;;;;39.87;25.70;;;;;;;6.12;86.82;101389.38;4951714;28;20193;-73
2021/11/13 08:30:16;;;;;;;40.67;26.47;;;;;;;6.14;86.90;101396.28;4940996;28;20216;-72
2021/11/13 08:32:43;;;;;;;37.80;25.13;;;;;;;6.17;87.23;101395.56;4942993;29;20186;-72
2021/11/13 08:35:09;;;;;;;38.73;26.30;;;;;;;6.18;86.47;101400.69;4952297;28;20211;-72
2021/11/13 08:37:35;;;;;;;39.27;27.03;;;;;;;6.13;86.79;101402.13;4952269;28;20193;-74
2021/11/13 08:40:01;;;;;;;37.53;26.33;;;;;;;6.11;86.99;101406.28;4952358;29;20216;-71
2021/11/13 08:42:26;;;;;;;40.93;26.47;;;;;;;6.14;87.51;101408.09;4936139;29;20655;-73
2021/11/13 08:44:52;;;;;;;42.10;27.47;;;;;;;6.14;87.48;101406.44;4935146;29;20189;-72
2021/11/13 08:47:19;;;;;;;37.53;26.00;;;;;;;6.16;87.60;101409.03;4934834;29;20314;-74
2021/11/13 08:49:46;;;;;;;42.33;27.97;;;;;;;6.15;88.16;101404.75;4952084;29;20598;-72
2021/11/13 08:52:16;;;;;;;43.13;27.93;;;;;;;6.20;88.06;101406.72;4959369;28;20199;-72
2021/11/13 08:54:42;;;;;;;43.30;28.33;;;;;;;6.23;88.40;101403.44;4951829;28;20216;-72
2021/11/13 08:57:08;;;;;;;45.47;29.33;;;;;;;6.27;89.03;101406.19;4935726;28;20280;-72
2021/11/13 08:59:33;;;;;;;46.83;30.87;;;;;;;6.28;89.41;101404.53;4951953;29;20206;-73
2021/11/13 09:02:02;;;;;;;45.23;29.83;;;;;;;6.31;89.44;101402.97;4950811;28;20195;-73
2021/11/13 09:04:29;;;;;;;47.83;28.97;;;;;;;6.28;88.86;101404.53;4934466;29;20625;-73
2021/11/13 09:06:55;;;;;;;42.40;29.13;;;;;;;6.35;89.64;101399.78;4951619;28;20663;-72
2021/11/13 09:09:20;;;;;;;44.17;29.10;;;;;;;6.43;89.69;101400.13;4956967;28;20216;-73
2021/11/13 09:11:46;;;;;;;44.57;29.27;;;;;;;6.38;88.93;101406.66;4953571;28;20200;-73
2021/11/13 09:14:14;;;;;;;40.27;27.30;;;;;;;6.37;88.44;101410.03;4953779;28;20200;-73
2021/11/13 09:16:40;;;;;;;41.63;28.07;;;;;;;6.39;88.06;101406.75;4970609;28;20271;-73
2021/11/13 09:19:07;;;;;;;42.27;27.10;;;;;;;6.39;88.89;101408.41;4970879;28;20193;-72
2021/11/13 09:21:33;;;;;;;40.93;25.83;;;;;;;6.44;88.48;101406.97;4952834;28;20275;-74
2021/11/13 09:24:00;;;;;;;39.77;27.03;;;;;;;6.49;88.42;101406.34;4962377;28;20193;-73
2021/11/13 09:26:25;;;;;;;38.20;25.47;;;;;;;6.51;87.76;101408.97;4951769;28;20684;-73
2021/11/13 09:28:52;;;;;;;39.20;26.63;;;;;;;6.59;87.61;101402.56;4951720;29;20213;-74
2021/11/13 09:31:18;;;;;;;38.03;26.40;;;;;;;6.67;86.17;101411.38;4935502;29;20189;-74
2021/11/13 09:33:45;;;;;;;40.27;26.03;;;;;;;6.78;87.00;101412.72;4939710;28;20193;-74
2021/11/13 09:36:10;;;;;;;37.63;25.07;;;;;;;6.89;86.91;101399.66;4970234;28;20684;-74
2021/11/13 09:38:44;;;;;;;36.70;23.97;;;;;;;6.84;86.01;101415.53;4941677;28;20829;-74
2021/11/13 09:41:12;;;;;;;37.53;25.33;;;;;;;6.80;86.20;101416.19;4953067;28;20898;-73
2021/11/13 09:43:38;;;;;;;38.70;24.77;;;;;;;6.86;85.41;101412.22;4969406;28;20211;-74
2021/11/13 09:46:06;;;;;;;37.10;24.53;;;;;;;6.97;86.28;101423.75;4970714;28;20737;-73
2021/11/13 09:48:33;;;;;;;36.73;24.50;;;;;;;6.91;85.54;101422.63;4952284;28;20209;-74
2021/11/13 09:50:59;;;;;;;35.67;23.53;;;;;;;6.97;85.66;101431.41;4951490;29;20761;-73
2021/11/13 09:53:26;;;;;;;33.70;22.63;;;;;;;6.94;85.49;101427.84;4967536;28;20200;-73
2021/11/13 09:55:54;;;;;;;39.03;25.23;;;;;;;6.85;86.01;101422.34;4969438;28;20244;-74
2021/11/13 09:58:20;;;;;;;35.83;24.67;;;;;;;7.06;85.14;101413.97;4968845;28;20616;-73
2021/11/13 10:00:46;;;;;;;35.87;24.10;;;;;;;7.12;85.70;101424.41;4953377;28;20235;-72
2021/11/13 10:03:19;;;;;;;35.03;24.47;;;;;;;7.16;85.12;101428.84;4937574;29;20280;-73
2021/11/13 10:05:53;;;;;;;33.40;24.93;;;;;;;7.27;85.15;101430.13;4951255;28;20182;-71
2021/11/13 10:08:19;;;;;;;33.50;23.57;;;;;;;7.34;85.27;101421.06;4951467;28;20205;-73
2021/11/13 10:10:49;;;;;;;35.60;24.20;;;;;;;7.37;85.09;101422.06;4951333;28;20213;-73
2021/11/13 10:13:37;;;;;;;33.20;23.30;;;;;;;7.39;84.87;101433.19;4934095;29;20534;-72
2021/11/13 10:16:05;;;;;;;33.13;23.63;;;;;;;7.55;84.75;101427.91;4953345;28;20190;-72
2021/11/13 10:18:34;;;;;;;30.07;21.53;;;;;;;7.42;84.26;101435.00;4938761;29;20200;-73
2021/11/13 10:21:05;;;;;;;36.67;23.93;;;;;;;7.40;84.24;101434.94;4954684;29;20271;-73
2021/11/13 10:23:58;;;;;;;30.57;21.37;;;;;;;7.50;84.41;101439.59;4966549;28;20553;-73
2021/11/13 10:26:29;;;;;;;32.40;24.03;;;;;;;7.58;84.56;101445.88;4972302;28;20216;-74
2021/11/13 10:29:24;;;;;;;28.93;21.90;;;;;;;7.53;84.01;101441.41;4954783;28;20291;-71
2021/11/13 10:31:54;;;;;;;32.23;22.70;;;;;;;7.51;83.34;101443.03;4959384;28;20209;-74
2021/11/13 10:34:31;;;;;;;35.23;24.00;;;;;;;7.44;85.12;101443.56;4954747;29;20186;-71
2021/11/13 10:36:59;;;;;;;32.47;23.30;;;;;;;7.42;84.30;101446.03;4972784;28;20192;-73
2021/11/13 10:39:33;;;;;;;32.13;23.73;;;;;;;7.41;85.14;101446.00;4974044;28;20205;-72
2021/11/13 10:42:08;;;;;;;28.33;20.97;;;;;;;7.30;83.95;101444.69;4966525;28;20282;-73
2021/11/13 10:44:41;;;;;;;32.57;22.37;;;;;;;7.35;84.97;101443.19;4937312;29;20217;-74
2021/11/13 10:47:16;;;;;;;35.63;24.13;;;;;;;7.41;85.44;101444.31;4952962;28;20189;-72
2021/11/13 10:49:43;;;;;;;31.37;22.77;;;;;;;7.48;85.62;101442.88;4968320;28;20224;-72
2021/11/13 10:52:09;;;;;;;32.57;23.23;;;;;;;7.45;85.34;101442.75;4961407;28;20193;-73
2021/11/13 10:54:38;;;;;;;31.60;22.47;;;;;;;7.49;84.93;101439.53;4956061;28;20569;-73
2021/11/13 10:57:05;;;;;;;29.93;21.13;;;;;;;7.54;83.96;101433.81;4973582;28;20258;-74
2021/11/13 10:59:34;;;;;;;31.20;22.27;;;;;;;7.52;84.35;101432.03;4973297;28;20568;-74
2021/11/13 11:02:02;;;;;;;32.73;23.37;;;;;;;7.56;85.02;101427.09;4969111;28;20196;-73
2021/11/13 11:04:31;;;;;;;30.00;21.23;;;;;;;7.61;84.19;101428.16;4954051;28;20228;-74
2021/11/13 11:07:04;;;;;;;30.80;21.47;;;;;;;7.70;83.92;101431.06;4953853;28;20189;-75
2021/11/13 11:09:33;;;;;;;29.40;21.90;;;;;;;7.78;84.50;101429.69;4936646;29;20271;-73
2021/11/13 11:12:09;;;;;;;30.40;22.63;;;;;;;7.91;84.38;101434.47;4953922;28;20221;-73
2021/11/13 11:14:38;;;;;;;30.13;20.97;;;;;;;7.98;83.32;101428.81;4936758;29;20181;-71
2021/11/13 11:17:06;;;;;;;28.20;20.27;;;;;;;8.05;83.16;101435.88;4963400;28;20211;-72
2021/11/13 11:19:34;;;;;;;30.60;20.00;;;;;;;8.04;82.89;101430.72;4939649;28;20248;-74